This is the latest recevied weather packets stored in our database for station/object XE2RCS-1. If no packets are shown the sender has not sent any weather packets the latest 1 day(s).
| Time | Temp. | Humidity | Pressure | Rain* | Wind** | Luminosity | Snow |
|---|---|---|---|---|---|---|---|
| 1836274631 | 20° C | 88% | 1018 hPa | 0 mm | 7.6 m/s, 40° | - | - |
| 1836274481 | 20° C | 89% | 1018 hPa | 0 mm | 7.6 m/s, 40° | - | - |
| 1836274030 | 20° C | 84% | 1016 hPa | 0 mm | 7.6 m/s, 40° | - | - |
| 1778061551 | 25° C | 13% | 1010 hPa | 0 mm | 8.05 m/s, 350° | - | - |
| 1778060951 | 25° C | 13% | 1010 hPa | 0 mm | 8.05 m/s, 350° | - | - |
| 1778060350 | 25° C | 13% | 1010 hPa | 0 mm | 8.05 m/s, 350° | - | - |
| 1778059749 | 25° C | 13% | 1010 hPa | 0 mm | 8.05 m/s, 350° | - | - |
| 1778059148 | 24.44° C | 14% | 1010 hPa | 0 mm | 8.05 m/s, 350° | - | - |
| 1778058548 | 24.44° C | 14% | 1010 hPa | 0 mm | 8.05 m/s, 350° | - | - |
| 1778057947 | 24.44° C | 14% | 1010 hPa | 0 mm | 8.05 m/s, 350° | - | - |
| 1778057346 | 23.89° C | 15% | 1010 hPa | 0 mm | 8.05 m/s, 350° | - | - |
| 1778056746 | 23.89° C | 16% | 1010 hPa | 0 mm | 8.05 m/s, 350° | - | - |
| 1778056145 | 23.89° C | 16% | 1009 hPa | 0 mm | 8.05 m/s, 350° | - | - |
| 1778055544 | 23.89° C | 17% | 1009 hPa | 0 mm | 8.05 m/s, 350° | - | - |
| 1778054343 | 23.33° C | 20% | 1009 hPa | 0 mm | 8.05 m/s, 350° | - | - |
| 1778053743 | 23.33° C | 19% | 1009 hPa | 0 mm | 8.05 m/s, 350° | - | - |
| 1778053142 | 23.33° C | 21% | 1009 hPa | 0 mm | 8.05 m/s, 350° | - | - |
| 1778052541 | 23.89° C | 21% | 1009 hPa | 0 mm | 8.05 m/s, 350° | - | - |
| 1778051941 | 23.89° C | 21% | 1009 hPa | 0 mm | 8.05 m/s, 350° | - | - |
| 1778051340 | 23.89° C | 21% | 1009 hPa | 0 mm | 8.05 m/s, 350° | - | - |
| 1778050740 | 23.89° C | 21% | 1009 hPa | 0 mm | 8.05 m/s, 350° | - | - |
| 1778050139 | 23.89° C | 21% | 1009 hPa | 0 mm | 8.05 m/s, 350° | - | - |
| 1778049538 | 23.89° C | 22% | 1009 hPa | 0 mm | 8.05 m/s, 350° | - | - |
| 1778048938 | 23.33° C | 25% | 1009 hPa | 0 mm | 8.05 m/s, 350° | - | - |
| 1778048337 | 23.33° C | 29% | 1009 hPa | 0 mm | 8.05 m/s, 350° | - | - |
* Rain latest hour (hover to see other rain measurements)
** Current wind speed in m/s (hover to see current wind gust speed)